sensor_id;sensor_type;location;lat;lon;timestamp;P1;durP1;ratioP1;P2;durP2;ratioP2
16254;SDS011;8235;52.198;9.904;2023-05-27T00:01:33;11.33;;;4.70;;
16254;SDS011;8235;52.198;9.904;2023-05-27T00:04:00;15.33;;;4.80;;
16254;SDS011;8235;52.198;9.904;2023-05-27T00:06:26;11.93;;;4.50;;
16254;SDS011;8235;52.198;9.904;2023-05-27T00:08:53;9.50;;;4.50;;
16254;SDS011;8235;52.198;9.904;2023-05-27T00:11:20;17.63;;;5.43;;
16254;SDS011;8235;52.198;9.904;2023-05-27T00:13:46;15.90;;;5.37;;
16254;SDS011;8235;52.198;9.904;2023-05-27T00:16:14;13.17;;;4.73;;
16254;SDS011;8235;52.198;9.904;2023-05-27T00:18:41;13.30;;;5.23;;
16254;SDS011;8235;52.198;9.904;2023-05-27T00:21:08;9.67;;;4.10;;
16254;SDS011;8235;52.198;9.904;2023-05-27T00:23:34;18.80;;;5.63;;
16254;SDS011;8235;52.198;9.904;2023-05-27T00:26:01;10.30;;;5.13;;
16254;SDS011;8235;52.198;9.904;2023-05-27T00:28:27;11.77;;;4.10;;
16254;SDS011;8235;52.198;9.904;2023-05-27T00:30:56;9.23;;;4.33;;
16254;SDS011;8235;52.198;9.904;2023-05-27T00:33:24;11.00;;;4.50;;
16254;SDS011;8235;52.198;9.904;2023-05-27T00:35:50;13.43;;;4.50;;
16254;SDS011;8235;52.198;9.904;2023-05-27T00:38:17;8.23;;;4.53;;
16254;SDS011;8235;52.198;9.904;2023-05-27T00:40:43;12.60;;;4.87;;
16254;SDS011;8235;52.198;9.904;2023-05-27T00:43:10;18.43;;;5.77;;
16254;SDS011;8235;52.198;9.904;2023-05-27T00:45:37;9.00;;;4.23;;
16254;SDS011;8235;52.198;9.904;2023-05-27T00:48:03;9.47;;;3.93;;
16254;SDS011;8235;52.198;9.904;2023-05-27T00:50:32;14.17;;;4.10;;
16254;SDS011;8235;52.198;9.904;2023-05-27T00:52:58;13.17;;;4.43;;
16254;SDS011;8235;52.198;9.904;2023-05-27T00:55:25;12.77;;;4.57;;
16254;SDS011;8235;52.198;9.904;2023-05-27T00:57:51;8.17;;;4.30;;
16254;SDS011;8235;52.198;9.904;2023-05-27T01:00:19;11.70;;;4.83;;
16254;SDS011;8235;52.198;9.904;2023-05-27T01:02:45;10.70;;;4.30;;
16254;SDS011;8235;52.198;9.904;2023-05-27T01:05:12;11.67;;;3.77;;
16254;SDS011;8235;52.198;9.904;2023-05-27T01:07:44;9.80;;;4.23;;
16254;SDS011;8235;52.198;9.904;2023-05-27T01:10:21;11.47;;;4.97;;
16254;SDS011;8235;52.198;9.904;2023-05-27T01:12:54;10.77;;;4.53;;
16254;SDS011;8235;52.198;9.904;2023-05-27T01:15:25;9.03;;;3.93;;
16254;SDS011;8235;52.198;9.904;2023-05-27T01:17:53;12.70;;;4.10;;
16254;SDS011;8235;52.198;9.904;2023-05-27T01:20:22;7.77;;;4.37;;
16254;SDS011;8235;52.198;9.904;2023-05-27T01:22:50;10.33;;;4.13;;
16254;SDS011;8235;52.198;9.904;2023-05-27T01:25:17;7.53;;;3.80;;
16254;SDS011;8235;52.198;9.904;2023-05-27T01:27:44;9.07;;;4.00;;
16254;SDS011;8235;52.198;9.904;2023-05-27T01:30:11;10.30;;;4.60;;
16254;SDS011;8235;52.198;9.904;2023-05-27T01:32:39;9.83;;;4.40;;
16254;SDS011;8235;52.198;9.904;2023-05-27T01:35:10;12.03;;;4.07;;
16254;SDS011;8235;52.198;9.904;2023-05-27T01:37:43;12.70;;;5.17;;
16254;SDS011;8235;52.198;9.904;2023-05-27T01:40:13;9.53;;;4.03;;
16254;SDS011;8235;52.198;9.904;2023-05-27T01:42:40;10.73;;;3.90;;
16254;SDS011;8235;52.198;9.904;2023-05-27T01:45:09;11.90;;;5.10;;
16254;SDS011;8235;52.198;9.904;2023-05-27T01:47:37;9.93;;;4.90;;
16254;SDS011;8235;52.198;9.904;2023-05-27T01:50:04;12.13;;;4.10;;
16254;SDS011;8235;52.198;9.904;2023-05-27T01:52:31;8.97;;;4.17;;
16254;SDS011;8235;52.198;9.904;2023-05-27T01:54:58;8.17;;;5.00;;
16254;SDS011;8235;52.198;9.904;2023-05-27T01:57:26;9.97;;;4.60;;
16254;SDS011;8235;52.198;9.904;2023-05-27T01:59:52;9.90;;;4.43;;
16254;SDS011;8235;52.198;9.904;2023-05-27T02:02:19;11.67;;;5.00;;
16254;SDS011;8235;52.198;9.904;2023-05-27T02:04:45;10.53;;;4.80;;
16254;SDS011;8235;52.198;9.904;2023-05-27T02:07:12;8.43;;;4.20;;
16254;SDS011;8235;52.198;9.904;2023-05-27T02:09:38;9.53;;;4.50;;
16254;SDS011;8235;52.198;9.904;2023-05-27T02:12:05;7.80;;;4.23;;
16254;SDS011;8235;52.198;9.904;2023-05-27T02:14:34;8.93;;;4.53;;
16254;SDS011;8235;52.198;9.904;2023-05-27T02:17:03;12.67;;;4.47;;
16254;SDS011;8235;52.198;9.904;2023-05-27T02:19:30;10.63;;;5.03;;
16254;SDS011;8235;52.198;9.904;2023-05-27T02:21:56;10.20;;;4.63;;
16254;SDS011;8235;52.198;9.904;2023-05-27T02:24:23;9.93;;;4.67;;
16254;SDS011;8235;52.198;9.904;2023-05-27T02:26:49;11.50;;;4.80;;
16254;SDS011;8235;52.198;9.904;2023-05-27T02:29:16;6.07;;;3.83;;
16254;SDS011;8235;52.198;9.904;2023-05-27T02:31:43;10.70;;;5.67;;
16254;SDS011;8235;52.198;9.904;2023-05-27T02:34:10;9.63;;;4.00;;
16254;SDS011;8235;52.198;9.904;2023-05-27T02:36:36;6.23;;;4.00;;
16254;SDS011;8235;52.198;9.904;2023-05-27T02:39:03;7.57;;;4.23;;
16254;SDS011;8235;52.198;9.904;2023-05-27T02:41:30;11.50;;;4.27;;
16254;SDS011;8235;52.198;9.904;2023-05-27T02:43:57;10.23;;;4.23;;
16254;SDS011;8235;52.198;9.904;2023-05-27T02:46:23;6.87;;;4.63;;
16254;SDS011;8235;52.198;9.904;2023-05-27T02:48:51;9.63;;;5.00;;
16254;SDS011;8235;52.198;9.904;2023-05-27T02:51:17;12.37;;;4.80;;
16254;SDS011;8235;52.198;9.904;2023-05-27T02:53:44;10.90;;;4.33;;
16254;SDS011;8235;52.198;9.904;2023-05-27T02:56:10;11.53;;;4.73;;
16254;SDS011;8235;52.198;9.904;2023-05-27T02:58:37;9.03;;;4.20;;
16254;SDS011;8235;52.198;9.904;2023-05-27T03:01:03;10.77;;;4.37;;
16254;SDS011;8235;52.198;9.904;2023-05-27T03:03:30;10.40;;;4.30;;
16254;SDS011;8235;52.198;9.904;2023-05-27T03:05:58;7.43;;;4.13;;
16254;SDS011;8235;52.198;9.904;2023-05-27T03:08:24;10.87;;;4.33;;
16254;SDS011;8235;52.198;9.904;2023-05-27T03:10:51;10.13;;;4.87;;
16254;SDS011;8235;52.198;9.904;2023-05-27T03:13:17;8.37;;;4.00;;
16254;SDS011;8235;52.198;9.904;2023-05-27T03:15:43;10.77;;;4.13;;
16254;SDS011;8235;52.198;9.904;2023-05-27T03:18:10;13.83;;;4.43;;
16254;SDS011;8235;52.198;9.904;2023-05-27T03:20:36;9.90;;;4.00;;
16254;SDS011;8235;52.198;9.904;2023-05-27T03:23:04;11.93;;;4.93;;
16254;SDS011;8235;52.198;9.904;2023-05-27T03:25:31;10.17;;;4.63;;
16254;SDS011;8235;52.198;9.904;2023-05-27T03:27:58;15.97;;;4.80;;
16254;SDS011;8235;52.198;9.904;2023-05-27T03:30:25;9.77;;;4.10;;
16254;SDS011;8235;52.198;9.904;2023-05-27T03:32:51;10.60;;;4.80;;
16254;SDS011;8235;52.198;9.904;2023-05-27T03:35:18;10.27;;;4.53;;
16254;SDS011;8235;52.198;9.904;2023-05-27T03:37:44;8.33;;;4.63;;
16254;SDS011;8235;52.198;9.904;2023-05-27T03:40:12;10.77;;;4.43;;
16254;SDS011;8235;52.198;9.904;2023-05-27T03:42:39;8.27;;;4.50;;
16254;SDS011;8235;52.198;9.904;2023-05-27T03:45:06;12.37;;;5.50;;
16254;SDS011;8235;52.198;9.904;2023-05-27T03:47:33;10.40;;;4.87;;
16254;SDS011;8235;52.198;9.904;2023-05-27T03:50:02;13.60;;;4.83;;
16254;SDS011;8235;52.198;9.904;2023-05-27T03:52:29;10.63;;;4.93;;
16254;SDS011;8235;52.198;9.904;2023-05-27T03:54:55;12.23;;;5.03;;
16254;SDS011;8235;52.198;9.904;2023-05-27T03:57:23;7.80;;;4.07;;
16254;SDS011;8235;52.198;9.904;2023-05-27T03:59:50;9.53;;;4.57;;
16254;SDS011;8235;52.198;9.904;2023-05-27T04:02:16;11.27;;;4.20;;
16254;SDS011;8235;52.198;9.904;2023-05-27T04:04:42;9.73;;;4.10;;
16254;SDS011;8235;52.198;9.904;2023-05-27T04:07:09;8.23;;;4.40;;
16254;SDS011;8235;52.198;9.904;2023-05-27T04:09:38;8.77;;;3.83;;
16254;SDS011;8235;52.198;9.904;2023-05-27T04:12:04;10.63;;;4.10;;
16254;SDS011;8235;52.198;9.904;2023-05-27T04:14:33;9.17;;;4.43;;
16254;SDS011;8235;52.198;9.904;2023-05-27T04:17:00;11.43;;;4.90;;
16254;SDS011;8235;52.198;9.904;2023-05-27T04:19:26;9.47;;;4.87;;
16254;SDS011;8235;52.198;9.904;2023-05-27T04:21:53;9.20;;;4.80;;
16254;SDS011;8235;52.198;9.904;2023-05-27T04:24:19;14.30;;;4.60;;
16254;SDS011;8235;52.198;9.904;2023-05-27T04:26:46;11.50;;;4.50;;
16254;SDS011;8235;52.198;9.904;2023-05-27T04:29:12;11.73;;;5.37;;
16254;SDS011;8235;52.198;9.904;2023-05-27T04:31:41;11.50;;;5.00;;
16254;SDS011;8235;52.198;9.904;2023-05-27T04:34:09;10.83;;;5.20;;
16254;SDS011;8235;52.198;9.904;2023-05-27T04:36:36;9.03;;;5.20;;
16254;SDS011;8235;52.198;9.904;2023-05-27T04:39:02;12.57;;;5.80;;
16254;SDS011;8235;52.198;9.904;2023-05-27T04:41:29;10.83;;;4.77;;
16254;SDS011;8235;52.198;9.904;2023-05-27T04:43:57;9.10;;;4.77;;
16254;SDS011;8235;52.198;9.904;2023-05-27T04:46:25;9.90;;;4.90;;
16254;SDS011;8235;52.198;9.904;2023-05-27T04:48:53;12.00;;;5.60;;
16254;SDS011;8235;52.198;9.904;2023-05-27T04:51:20;11.37;;;5.13;;
16254;SDS011;8235;52.198;9.904;2023-05-27T04:53:47;12.47;;;5.33;;
16254;SDS011;8235;52.198;9.904;2023-05-27T04:56:14;13.67;;;5.47;;
16254;SDS011;8235;52.198;9.904;2023-05-27T04:58:42;11.50;;;5.27;;
16254;SDS011;8235;52.198;9.904;2023-05-27T05:01:11;12.03;;;5.50;;
16254;SDS011;8235;52.198;9.904;2023-05-27T05:03:42;12.03;;;5.37;;
16254;SDS011;8235;52.198;9.904;2023-05-27T05:06:18;15.87;;;5.80;;
16254;SDS011;8235;52.198;9.904;2023-05-27T05:08:46;9.60;;;5.47;;
16254;SDS011;8235;52.198;9.904;2023-05-27T05:11:12;10.57;;;6.13;;
16254;SDS011;8235;52.198;9.904;2023-05-27T05:13:39;11.37;;;5.57;;
16254;SDS011;8235;52.198;9.904;2023-05-27T05:16:06;14.43;;;6.67;;
16254;SDS011;8235;52.198;9.904;2023-05-27T05:18:32;17.43;;;6.37;;
16254;SDS011;8235;52.198;9.904;2023-05-27T05:20:59;12.60;;;6.83;;
16254;SDS011;8235;52.198;9.904;2023-05-27T05:23:26;18.50;;;7.20;;
16254;SDS011;8235;52.198;9.904;2023-05-27T05:25:53;11.80;;;5.60;;
16254;SDS011;8235;52.198;9.904;2023-05-27T05:28:23;12.83;;;6.17;;
16254;SDS011;8235;52.198;9.904;2023-05-27T05:30:49;16.00;;;6.07;;
16254;SDS011;8235;52.198;9.904;2023-05-27T05:33:16;15.00;;;5.97;;
16254;SDS011;8235;52.198;9.904;2023-05-27T05:35:42;14.93;;;5.73;;
16254;SDS011;8235;52.198;9.904;2023-05-27T05:38:09;14.47;;;6.00;;
16254;SDS011;8235;52.198;9.904;2023-05-27T05:40:37;19.20;;;7.00;;
16254;SDS011;8235;52.198;9.904;2023-05-27T05:43:03;16.60;;;6.63;;
16254;SDS011;8235;52.198;9.904;2023-05-27T05:45:30;15.97;;;5.73;;
16254;SDS011;8235;52.198;9.904;2023-05-27T05:47:56;13.93;;;5.90;;
16254;SDS011;8235;52.198;9.904;2023-05-27T05:50:23;19.90;;;6.47;;
16254;SDS011;8235;52.198;9.904;2023-05-27T05:52:49;14.97;;;6.10;;
16254;SDS011;8235;52.198;9.904;2023-05-27T05:55:16;14.83;;;5.93;;
16254;SDS011;8235;52.198;9.904;2023-05-27T05:57:44;13.70;;;5.73;;
16254;SDS011;8235;52.198;9.904;2023-05-27T06:00:11;10.97;;;6.20;;
16254;SDS011;8235;52.198;9.904;2023-05-27T06:02:39;16.93;;;6.40;;
16254;SDS011;8235;52.198;9.904;2023-05-27T06:05:05;13.70;;;6.33;;
16254;SDS011;8235;52.198;9.904;2023-05-27T06:07:32;15.00;;;6.33;;
16254;SDS011;8235;52.198;9.904;2023-05-27T06:09:59;18.40;;;7.07;;
16254;SDS011;8235;52.198;9.904;2023-05-27T06:12:25;11.33;;;5.73;;
16254;SDS011;8235;52.198;9.904;2023-05-27T06:14:53;18.83;;;7.07;;
16254;SDS011;8235;52.198;9.904;2023-05-27T06:17:19;12.90;;;5.73;;
16254;SDS011;8235;52.198;9.904;2023-05-27T06:19:46;16.33;;;7.03;;
16254;SDS011;8235;52.198;9.904;2023-05-27T06:22:12;16.60;;;7.13;;
16254;SDS011;8235;52.198;9.904;2023-05-27T06:24:40;17.37;;;6.40;;
16254;SDS011;8235;52.198;9.904;2023-05-27T06:27:06;13.87;;;6.97;;
16254;SDS011;8235;52.198;9.904;2023-05-27T06:29:32;13.40;;;5.87;;
16254;SDS011;8235;52.198;9.904;2023-05-27T06:32:01;13.07;;;6.97;;
16254;SDS011;8235;52.198;9.904;2023-05-27T06:34:27;15.53;;;6.83;;
16254;SDS011;8235;52.198;9.904;2023-05-27T06:36:54;14.97;;;6.50;;
16254;SDS011;8235;52.198;9.904;2023-05-27T06:39:20;12.67;;;7.30;;
16254;SDS011;8235;52.198;9.904;2023-05-27T06:41:47;13.80;;;5.97;;
16254;SDS011;8235;52.198;9.904;2023-05-27T06:44:14;11.27;;;5.87;;
16254;SDS011;8235;52.198;9.904;2023-05-27T06:46:40;13.87;;;6.90;;
16254;SDS011;8235;52.198;9.904;2023-05-27T06:49:08;17.80;;;6.63;;
16254;SDS011;8235;52.198;9.904;2023-05-27T06:51:34;13.80;;;6.63;;
16254;SDS011;8235;52.198;9.904;2023-05-27T06:54:01;12.87;;;6.50;;
16254;SDS011;8235;52.198;9.904;2023-05-27T06:56:27;16.47;;;6.73;;
16254;SDS011;8235;52.198;9.904;2023-05-27T06:58:54;14.80;;;6.07;;
16254;SDS011;8235;52.198;9.904;2023-05-27T07:01:20;13.73;;;7.40;;
16254;SDS011;8235;52.198;9.904;2023-05-27T07:03:46;13.90;;;7.00;;
16254;SDS011;8235;52.198;9.904;2023-05-27T07:06:14;17.40;;;6.83;;
16254;SDS011;8235;52.198;9.904;2023-05-27T07:08:41;17.57;;;7.00;;
16254;SDS011;8235;52.198;9.904;2023-05-27T07:11:07;11.93;;;6.10;;
16254;SDS011;8235;52.198;9.904;2023-05-27T07:13:34;14.37;;;6.23;;
16254;SDS011;8235;52.198;9.904;2023-05-27T07:16:00;14.50;;;6.33;;
16254;SDS011;8235;52.198;9.904;2023-05-27T07:18:26;17.07;;;6.30;;
16254;SDS011;8235;52.198;9.904;2023-05-27T07:20:53;14.87;;;5.80;;
16254;SDS011;8235;52.198;9.904;2023-05-27T07:23:21;16.93;;;6.23;;
16254;SDS011;8235;52.198;9.904;2023-05-27T07:25:47;12.93;;;6.03;;
16254;SDS011;8235;52.198;9.904;2023-05-27T07:28:14;16.53;;;6.17;;
16254;SDS011;8235;52.198;9.904;2023-05-27T07:30:41;16.50;;;6.87;;
16254;SDS011;8235;52.198;9.904;2023-05-27T07:33:08;12.17;;;6.00;;
16254;SDS011;8235;52.198;9.904;2023-05-27T07:35:34;11.13;;;5.67;;
16254;SDS011;8235;52.198;9.904;2023-05-27T07:38:01;12.87;;;4.90;;
16254;SDS011;8235;52.198;9.904;2023-05-27T07:40:29;17.00;;;7.13;;
16254;SDS011;8235;52.198;9.904;2023-05-27T07:42:55;10.17;;;4.93;;
16254;SDS011;8235;52.198;9.904;2023-05-27T07:45:22;12.27;;;6.00;;
16254;SDS011;8235;52.198;9.904;2023-05-27T07:47:48;13.63;;;5.27;;
16254;SDS011;8235;52.198;9.904;2023-05-27T07:50:15;13.37;;;5.43;;
16254;SDS011;8235;52.198;9.904;2023-05-27T07:52:41;15.53;;;5.27;;
16254;SDS011;8235;52.198;9.904;2023-05-27T07:55:08;12.00;;;5.00;;
16254;SDS011;8235;52.198;9.904;2023-05-27T07:57:36;13.57;;;5.40;;
16254;SDS011;8235;52.198;9.904;2023-05-27T08:00:02;13.07;;;5.00;;
16254;SDS011;8235;52.198;9.904;2023-05-27T08:02:30;13.03;;;5.10;;
16254;SDS011;8235;52.198;9.904;2023-05-27T08:04:57;12.73;;;5.07;;
16254;SDS011;8235;52.198;9.904;2023-05-27T08:07:23;14.73;;;5.70;;
16254;SDS011;8235;52.198;9.904;2023-05-27T08:09:50;13.97;;;5.30;;
16254;SDS011;8235;52.198;9.904;2023-05-27T08:12:16;13.00;;;4.13;;
16254;SDS011;8235;52.198;9.904;2023-05-27T08:14:44;12.40;;;4.80;;
16254;SDS011;8235;52.198;9.904;2023-05-27T08:17:10;8.63;;;4.53;;
16254;SDS011;8235;52.198;9.904;2023-05-27T08:19:37;7.33;;;3.67;;
16254;SDS011;8235;52.198;9.904;2023-05-27T08:22:03;9.70;;;4.10;;
16254;SDS011;8235;52.198;9.904;2023-05-27T08:24:33;14.10;;;5.00;;
16254;SDS011;8235;52.198;9.904;2023-05-27T08:27:00;11.33;;;4.27;;
16254;SDS011;8235;52.198;9.904;2023-05-27T08:29:27;11.20;;;4.47;;
16254;SDS011;8235;52.198;9.904;2023-05-27T08:31:56;12.23;;;4.60;;
16254;SDS011;8235;52.198;9.904;2023-05-27T08:34:23;9.27;;;4.60;;
16254;SDS011;8235;52.198;9.904;2023-05-27T08:36:50;13.50;;;4.50;;
16254;SDS011;8235;52.198;9.904;2023-05-27T08:39:17;11.17;;;4.63;;
16254;SDS011;8235;52.198;9.904;2023-05-27T08:41:43;9.97;;;4.30;;
16254;SDS011;8235;52.198;9.904;2023-05-27T08:44:10;12.73;;;4.60;;
16254;SDS011;8235;52.198;9.904;2023-05-27T08:46:37;10.70;;;4.40;;
16254;SDS011;8235;52.198;9.904;2023-05-27T08:49:06;10.27;;;3.80;;
16254;SDS011;8235;52.198;9.904;2023-05-27T08:51:34;9.67;;;3.13;;
16254;SDS011;8235;52.198;9.904;2023-05-27T08:54:04;9.57;;;3.73;;
16254;SDS011;8235;52.198;9.904;2023-05-27T08:56:30;10.77;;;4.77;;
16254;SDS011;8235;52.198;9.904;2023-05-27T08:58:59;12.73;;;4.63;;
16254;SDS011;8235;52.198;9.904;2023-05-27T09:01:26;13.37;;;4.73;;
16254;SDS011;8235;52.198;9.904;2023-05-27T09:03:53;9.40;;;4.63;;
16254;SDS011;8235;52.198;9.904;2023-05-27T09:06:22;8.73;;;3.00;;
16254;SDS011;8235;52.198;9.904;2023-05-27T09:08:49;8.67;;;4.00;;
16254;SDS011;8235;52.198;9.904;2023-05-27T09:11:19;8.70;;;3.90;;
16254;SDS011;8235;52.198;9.904;2023-05-27T09:13:46;12.40;;;4.20;;
16254;SDS011;8235;52.198;9.904;2023-05-27T09:16:13;8.70;;;4.20;;
16254;SDS011;8235;52.198;9.904;2023-05-27T09:18:41;11.33;;;4.83;;
16254;SDS011;8235;52.198;9.904;2023-05-27T09:21:07;11.73;;;5.17;;
16254;SDS011;8235;52.198;9.904;2023-05-27T09:23:38;14.27;;;5.23;;
16254;SDS011;8235;52.198;9.904;2023-05-27T09:26:07;10.40;;;5.10;;
16254;SDS011;8235;52.198;9.904;2023-05-27T09:28:35;10.27;;;4.77;;
16254;SDS011;8235;52.198;9.904;2023-05-27T09:31:02;12.33;;;5.30;;
16254;SDS011;8235;52.198;9.904;2023-05-27T09:33:32;14.33;;;5.57;;
16254;SDS011;8235;52.198;9.904;2023-05-27T09:35:59;15.40;;;6.13;;
16254;SDS011;8235;52.198;9.904;2023-05-27T09:38:27;10.50;;;4.87;;
16254;SDS011;8235;52.198;9.904;2023-05-27T09:40:55;11.17;;;5.20;;
16254;SDS011;8235;52.198;9.904;2023-05-27T09:43:23;12.30;;;5.20;;
16254;SDS011;8235;52.198;9.904;2023-05-27T09:45:50;13.50;;;5.30;;
16254;SDS011;8235;52.198;9.904;2023-05-27T09:48:18;9.37;;;4.90;;
16254;SDS011;8235;52.198;9.904;2023-05-27T09:50:45;13.07;;;4.70;;
16254;SDS011;8235;52.198;9.904;2023-05-27T09:53:12;9.00;;;4.43;;
16254;SDS011;8235;52.198;9.904;2023-05-27T09:55:39;12.17;;;4.80;;
16254;SDS011;8235;52.198;9.904;2023-05-27T09:58:08;10.60;;;4.40;;
16254;SDS011;8235;52.198;9.904;2023-05-27T10:00:35;10.27;;;4.73;;
16254;SDS011;8235;52.198;9.904;2023-05-27T10:03:06;8.07;;;4.13;;
16254;SDS011;8235;52.198;9.904;2023-05-27T10:05:33;7.30;;;3.90;;
16254;SDS011;8235;52.198;9.904;2023-05-27T10:08:00;10.17;;;4.33;;
16254;SDS011;8235;52.198;9.904;2023-05-27T10:10:28;12.10;;;4.17;;
16254;SDS011;8235;52.198;9.904;2023-05-27T10:12:55;9.88;;;3.55;;
16254;SDS011;8235;52.198;9.904;2023-05-27T10:15:26;7.55;;;3.20;;
16254;SDS011;8235;52.198;9.904;2023-05-27T10:17:54;7.23;;;3.80;;
16254;SDS011;8235;52.198;9.904;2023-05-27T10:20:26;7.32;;;3.63;;
16254;SDS011;8235;52.198;9.904;2023-05-27T10:22:53;9.40;;;3.40;;
16254;SDS011;8235;52.198;9.904;2023-05-27T10:25:21;8.20;;;3.85;;
16254;SDS011;8235;52.198;9.904;2023-05-27T10:27:48;8.05;;;3.22;;
16254;SDS011;8235;52.198;9.904;2023-05-27T10:30:15;8.10;;;3.22;;
16254;SDS011;8235;52.198;9.904;2023-05-27T10:32:44;7.95;;;3.28;;
16254;SDS011;8235;52.198;9.904;2023-05-27T10:35:13;6.90;;;3.33;;
16254;SDS011;8235;52.198;9.904;2023-05-27T10:37:41;7.93;;;2.75;;
16254;SDS011;8235;52.198;9.904;2023-05-27T10:40:08;6.28;;;2.90;;
16254;SDS011;8235;52.198;9.904;2023-05-27T10:42:34;8.52;;;3.60;;
16254;SDS011;8235;52.198;9.904;2023-05-27T10:45:02;6.20;;;2.65;;
16254;SDS011;8235;52.198;9.904;2023-05-27T10:47:33;7.17;;;2.73;;
16254;SDS011;8235;52.198;9.904;2023-05-27T10:50:10;8.48;;;3.20;;
16254;SDS011;8235;52.198;9.904;2023-05-27T10:52:38;6.93;;;3.05;;
16254;SDS011;8235;52.198;9.904;2023-05-27T10:55:05;9.18;;;3.15;;
16254;SDS011;8235;52.198;9.904;2023-05-27T10:57:32;7.82;;;3.35;;
16254;SDS011;8235;52.198;9.904;2023-05-27T11:00:00;6.43;;;2.60;;
16254;SDS011;8235;52.198;9.904;2023-05-27T11:02:33;7.85;;;3.03;;
16254;SDS011;8235;52.198;9.904;2023-05-27T11:05:01;7.70;;;3.10;;
16254;SDS011;8235;52.198;9.904;2023-05-27T11:07:34;5.57;;;2.72;;
16254;SDS011;8235;52.198;9.904;2023-05-27T11:10:03;6.95;;;2.95;;
16254;SDS011;8235;52.198;9.904;2023-05-27T11:12:30;9.25;;;3.10;;
16254;SDS011;8235;52.198;9.904;2023-05-27T11:14:57;5.18;;;2.60;;
16254;SDS011;8235;52.198;9.904;2023-05-27T11:17:23;6.72;;;2.92;;
16254;SDS011;8235;52.198;9.904;2023-05-27T11:19:51;8.82;;;3.05;;
16254;SDS011;8235;52.198;9.904;2023-05-27T11:22:18;4.88;;;3.03;;
16254;SDS011;8235;52.198;9.904;2023-05-27T11:24:56;7.90;;;2.75;;
16254;SDS011;8235;52.198;9.904;2023-05-27T11:27:23;5.85;;;2.55;;
16254;SDS011;8235;52.198;9.904;2023-05-27T11:29:51;5.45;;;2.70;;
16254;SDS011;8235;52.198;9.904;2023-05-27T11:32:18;12.05;;;3.42;;
16254;SDS011;8235;52.198;9.904;2023-05-27T11:34:46;6.57;;;2.63;;
16254;SDS011;8235;52.198;9.904;2023-05-27T11:37:13;5.50;;;2.70;;
16254;SDS011;8235;52.198;9.904;2023-05-27T11:39:48;5.50;;;2.78;;
16254;SDS011;8235;52.198;9.904;2023-05-27T11:42:19;6.45;;;2.60;;
16254;SDS011;8235;52.198;9.904;2023-05-27T11:44:49;11.15;;;3.05;;
16254;SDS011;8235;52.198;9.904;2023-05-27T11:47:16;6.45;;;2.70;;
16254;SDS011;8235;52.198;9.904;2023-05-27T11:49:43;7.93;;;3.30;;
16254;SDS011;8235;52.198;9.904;2023-05-27T11:52:10;5.60;;;2.72;;
16254;SDS011;8235;52.198;9.904;2023-05-27T11:54:37;6.68;;;2.78;;
16254;SDS011;8235;52.198;9.904;2023-05-27T11:57:04;6.78;;;3.17;;
16254;SDS011;8235;52.198;9.904;2023-05-27T11:59:33;8.57;;;2.70;;
16254;SDS011;8235;52.198;9.904;2023-05-27T12:02:00;9.07;;;3.03;;
16254;SDS011;8235;52.198;9.904;2023-05-27T12:04:29;6.53;;;2.90;;
16254;SDS011;8235;52.198;9.904;2023-05-27T12:06:55;6.30;;;2.60;;
16254;SDS011;8235;52.198;9.904;2023-05-27T12:09:23;6.53;;;2.75;;
16254;SDS011;8235;52.198;9.904;2023-05-27T12:11:49;8.68;;;2.70;;
16254;SDS011;8235;52.198;9.904;2023-05-27T12:14:16;5.88;;;2.90;;
16254;SDS011;8235;52.198;9.904;2023-05-27T12:16:44;8.07;;;2.97;;
16254;SDS011;8235;52.198;9.904;2023-05-27T12:19:10;6.28;;;3.13;;
16254;SDS011;8235;52.198;9.904;2023-05-27T12:21:37;5.65;;;2.65;;
16254;SDS011;8235;52.198;9.904;2023-05-27T12:24:05;6.35;;;2.60;;
16254;SDS011;8235;52.198;9.904;2023-05-27T12:26:33;5.55;;;2.85;;
16254;SDS011;8235;52.198;9.904;2023-05-27T12:28:59;7.70;;;3.00;;
16254;SDS011;8235;52.198;9.904;2023-05-27T12:31:26;7.68;;;3.20;;
16254;SDS011;8235;52.198;9.904;2023-05-27T12:33:53;5.72;;;2.60;;
16254;SDS011;8235;52.198;9.904;2023-05-27T12:36:20;5.53;;;2.58;;
16254;SDS011;8235;52.198;9.904;2023-05-27T12:38:46;6.80;;;3.00;;
16254;SDS011;8235;52.198;9.904;2023-05-27T12:41:13;8.27;;;3.38;;
16254;SDS011;8235;52.198;9.904;2023-05-27T12:43:39;8.55;;;3.13;;
16254;SDS011;8235;52.198;9.904;2023-05-27T12:46:06;6.13;;;2.53;;
16254;SDS011;8235;52.198;9.904;2023-05-27T12:48:32;6.10;;;2.60;;
16254;SDS011;8235;52.198;9.904;2023-05-27T12:51:00;7.80;;;3.28;;
16254;SDS011;8235;52.198;9.904;2023-05-27T12:53:28;6.38;;;3.05;;
16254;SDS011;8235;52.198;9.904;2023-05-27T12:55:54;4.90;;;2.75;;
16254;SDS011;8235;52.198;9.904;2023-05-27T12:58:21;8.00;;;3.20;;
16254;SDS011;8235;52.198;9.904;2023-05-27T13:00:48;7.05;;;2.97;;
16254;SDS011;8235;52.198;9.904;2023-05-27T13:03:14;5.85;;;2.63;;
16254;SDS011;8235;52.198;9.904;2023-05-27T13:05:42;6.88;;;2.85;;
16254;SDS011;8235;52.198;9.904;2023-05-27T13:08:11;5.93;;;2.97;;
16254;SDS011;8235;52.198;9.904;2023-05-27T13:10:37;7.30;;;3.20;;
16254;SDS011;8235;52.198;9.904;2023-05-27T13:13:04;5.95;;;2.80;;
16254;SDS011;8235;52.198;9.904;2023-05-27T13:15:31;4.78;;;2.83;;
16254;SDS011;8235;52.198;9.904;2023-05-27T13:17:58;5.70;;;2.42;;
16254;SDS011;8235;52.198;9.904;2023-05-27T13:20:25;7.47;;;3.00;;
16254;SDS011;8235;52.198;9.904;2023-05-27T13:22:53;6.05;;;2.63;;
16254;SDS011;8235;52.198;9.904;2023-05-27T13:25:26;6.95;;;2.78;;
16254;SDS011;8235;52.198;9.904;2023-05-27T13:27:54;7.70;;;3.25;;
16254;SDS011;8235;52.198;9.904;2023-05-27T13:30:21;9.02;;;3.30;;
16254;SDS011;8235;52.198;9.904;2023-05-27T13:32:49;5.20;;;2.97;;
16254;SDS011;8235;52.198;9.904;2023-05-27T13:35:15;5.72;;;3.10;;
16254;SDS011;8235;52.198;9.904;2023-05-27T13:37:42;7.00;;;2.72;;
16254;SDS011;8235;52.198;9.904;2023-05-27T13:40:09;8.82;;;2.95;;
16254;SDS011;8235;52.198;9.904;2023-05-27T13:42:37;7.30;;;3.40;;
16254;SDS011;8235;52.198;9.904;2023-05-27T13:45:05;3.78;;;2.40;;
16254;SDS011;8235;52.198;9.904;2023-05-27T13:47:33;5.43;;;2.67;;
16254;SDS011;8235;52.198;9.904;2023-05-27T13:49:59;7.75;;;3.20;;
16254;SDS011;8235;52.198;9.904;2023-05-27T13:52:26;5.75;;;2.88;;
16254;SDS011;8235;52.198;9.904;2023-05-27T13:54:52;5.38;;;2.33;;
16254;SDS011;8235;52.198;9.904;2023-05-27T13:57:19;6.60;;;2.58;;
16254;SDS011;8235;52.198;9.904;2023-05-27T13:59:47;6.50;;;3.00;;
16254;SDS011;8235;52.198;9.904;2023-05-27T14:02:13;5.53;;;3.20;;
16254;SDS011;8235;52.198;9.904;2023-05-27T14:04:40;8.85;;;3.15;;
16254;SDS011;8235;52.198;9.904;2023-05-27T14:07:06;5.22;;;2.65;;
16254;SDS011;8235;52.198;9.904;2023-05-27T14:09:33;6.47;;;2.72;;
16254;SDS011;8235;52.198;9.904;2023-05-27T14:11:59;6.40;;;2.97;;
16254;SDS011;8235;52.198;9.904;2023-05-27T14:14:27;6.45;;;2.90;;
16254;SDS011;8235;52.198;9.904;2023-05-27T14:16:55;5.00;;;2.45;;
16254;SDS011;8235;52.198;9.904;2023-05-27T14:19:21;7.38;;;3.13;;
16254;SDS011;8235;52.198;9.904;2023-05-27T14:21:48;6.35;;;2.60;;
16254;SDS011;8235;52.198;9.904;2023-05-27T14:24:14;4.15;;;2.45;;
16254;SDS011;8235;52.198;9.904;2023-05-27T14:26:41;7.07;;;2.95;;
16254;SDS011;8235;52.198;9.904;2023-05-27T14:29:08;6.05;;;2.75;;
16254;SDS011;8235;52.198;9.904;2023-05-27T14:31:35;4.35;;;2.70;;
16254;SDS011;8235;52.198;9.904;2023-05-27T14:34:03;7.05;;;2.78;;
16254;SDS011;8235;52.198;9.904;2023-05-27T14:36:30;6.72;;;3.22;;
16254;SDS011;8235;52.198;9.904;2023-05-27T14:38:56;8.07;;;3.28;;
16254;SDS011;8235;52.198;9.904;2023-05-27T14:41:23;6.03;;;3.97;;
16254;SDS011;8235;52.198;9.904;2023-05-27T14:43:51;4.93;;;2.50;;
16254;SDS011;8235;52.198;9.904;2023-05-27T14:46:18;5.20;;;3.08;;
16254;SDS011;8235;52.198;9.904;2023-05-27T14:48:44;6.95;;;3.25;;
16254;SDS011;8235;52.198;9.904;2023-05-27T14:51:12;6.63;;;2.90;;
16254;SDS011;8235;52.198;9.904;2023-05-27T14:53:38;4.70;;;2.85;;
16254;SDS011;8235;52.198;9.904;2023-05-27T14:56:05;5.88;;;3.35;;